Time;durP1;ratioP1;P1;durP2;ratioP2;P2;SDS_P1;SDS_P2;PMS_P1;PMS_P2;Temp;Humidity;BMP_temperature;BMP_pressure;BME280_temperature;BME280_humidity;BME280_pressure;Samples;Min_cycle;Max_cycle;Signal;HPM_P1;HPM_P2
2023/06/17 00:01:14;;;;;;;6.33;6.00;;;14.30;78.90;;;;;;6263354;28;20238;-77
2023/06/17 00:04:18;;;;;;;7.40;7.00;;;14.30;78.90;;;;;;6263514;28;20233;-78
2023/06/17 00:07:21;;;;;;;7.47;7.07;;;14.30;78.80;;;;;;6279077;28;20252;-80
2023/06/17 00:10:24;;;;;;;7.33;6.97;;;14.30;78.90;;;;;;6281370;28;20244;-79
2023/06/17 00:13:29;;;;;;;6.50;6.20;;;14.30;78.80;;;;;;6272570;28;20234;-79
2023/06/17 00:16:32;;;;;;;7.17;6.73;;;14.30;78.80;;;;;;6267263;28;20234;-79
2023/06/17 00:19:40;;;;;;;7.17;6.57;;;14.30;78.80;;;;;;6269723;28;20242;-77
2023/06/17 00:22:44;;;;;;;7.13;6.73;;;14.30;78.70;;;;;;6264931;28;20234;-79
2023/06/17 00:25:48;;;;;;;7.20;6.87;;;14.30;78.70;;;;;;6263797;28;20343;-80
2023/06/17 00:28:52;;;;;;;6.67;6.37;;;14.20;78.70;;;;;;6274113;28;20637;-79
2023/06/17 00:31:55;;;;;;;6.47;5.93;;;14.20;78.70;;;;;;6268952;28;20249;-80
2023/06/17 00:34:58;;;;;;;6.93;6.63;;;14.20;78.70;;;;;;6282561;28;20399;-80
2023/06/17 00:38:02;;;;;;;7.50;6.90;;;14.20;78.80;;;;;;6277982;28;20234;-79
2023/06/17 00:41:05;;;;;;;6.50;6.10;;;14.30;78.80;;;;;;6273905;28;20339;-80
2023/06/17 00:44:09;;;;;;;5.73;5.50;;;14.30;78.70;;;;;;6270201;28;20273;-78
2023/06/17 00:47:14;;;;;;;6.73;6.43;;;14.30;78.60;;;;;;6274337;28;20242;-79
2023/06/17 00:50:19;;;;;;;7.10;6.73;;;14.30;78.50;;;;;;6259331;28;20321;-80
2023/06/17 00:53:23;;;;;;;7.30;6.73;;;14.30;78.50;;;;;;6262358;28;20710;-76
2023/06/17 00:56:28;;;;;;;6.47;6.20;;;14.30;78.60;;;;;;6274711;28;20262;-80
2023/06/17 00:59:35;;;;;;;6.70;6.40;;;14.30;78.60;;;;;;6272344;28;20878;-79
2023/06/17 01:02:40;;;;;;;6.63;6.33;;;14.30;78.60;;;;;;6263128;28;20302;-76
2023/06/17 01:05:43;;;;;;;6.23;6.03;;;14.30;78.70;;;;;;6274297;28;20244;-79
2023/06/17 01:08:57;;;;;;;7.73;7.27;;;14.30;78.50;;;;;;6283680;28;20308;-80
2023/06/17 01:12:01;;;;;;;6.73;6.43;;;14.30;78.60;;;;;;6278979;28;20245;-78
2023/06/17 01:15:10;;;;;;;8.10;7.53;;;14.30;78.50;;;;;;6290435;28;20334;-78
2023/06/17 01:18:17;;;;;;;6.67;6.37;;;14.30;78.40;;;;;;6271093;28;20723;-80
2023/06/17 01:21:22;;;;;;;7.13;6.83;;;14.30;78.40;;;;;;6250355;28;20239;-80
2023/06/17 01:24:29;;;;;;;7.87;7.47;;;14.30;78.30;;;;;;6262984;28;20244;-80
2023/06/17 01:27:34;;;;;;;7.90;7.20;;;14.30;78.50;;;;;;6290413;28;20249;-80
2023/06/17 01:30:37;;;;;;;6.10;5.70;;;14.30;78.40;;;;;;6280180;28;20325;-79
2023/06/17 01:33:43;;;;;;;6.57;6.27;;;14.30;78.40;;;;;;6260654;28;20225;-80
2023/06/17 01:36:48;;;;;;;6.17;5.87;;;14.30;78.40;;;;;;6290112;28;20233;-79
2023/06/17 01:39:57;;;;;;;8.03;7.53;;;14.30;78.40;;;;;;6273153;28;20379;-80
2023/06/17 01:43:03;;;;;;;7.57;7.17;;;14.30;78.40;;;;;;6268346;28;20242;-80
2023/06/17 01:46:07;;;;;;;7.60;7.10;;;14.30;78.40;;;;;;6257876;28;20740;-78
2023/06/17 01:49:11;;;;;;;9.00;8.23;;;14.30;78.50;;;;;;6270554;28;20230;-78
2023/06/17 01:52:14;;;;;;;8.63;7.97;;;14.30;78.50;;;;;;6270335;28;20286;-78
2023/06/17 01:55:20;;;;;;;8.13;7.63;;;14.30;78.50;;;;;;6270532;28;20308;-78
2023/06/17 01:58:23;;;;;;;8.77;7.90;;;14.30;78.50;;;;;;6272748;28;20243;-78
2023/06/17 02:01:26;;;;;;;10.30;9.40;;;14.30;78.40;;;;;;6284454;28;20245;-79
2023/06/17 02:04:29;;;;;;;9.17;8.47;;;14.30;78.60;;;;;;6267354;28;20234;-78
2023/06/17 02:07:33;;;;;;;8.10;7.53;;;14.20;78.70;;;;;;6273559;28;20234;-78
2023/06/17 02:10:38;;;;;;;8.40;7.80;;;14.20;78.70;;;;;;6259003;28;20241;-80
2023/06/17 02:13:42;;;;;;;9.27;8.70;;;14.30;78.70;;;;;;6268739;28;20717;-79
2023/06/17 02:16:47;;;;;;;7.97;7.57;;;14.30;78.60;;;;;;6269385;28;20225;-79
2023/06/17 02:19:51;;;;;;;9.03;8.43;;;14.30;78.40;;;;;;6272768;28;20277;-80
2023/06/17 02:22:54;;;;;;;7.73;7.23;;;14.30;78.40;;;;;;6269788;28;20246;-79
2023/06/17 02:25:59;;;;;;;7.53;7.10;;;14.30;78.30;;;;;;6265340;28;20288;-79
2023/06/17 02:29:02;;;;;;;7.27;6.77;;;14.30;78.30;;;;;;6278839;28;20799;-78
2023/06/17 02:32:06;;;;;;;8.73;8.13;;;14.40;78.20;;;;;;6271405;28;20240;-79
2023/06/17 02:35:12;;;;;;;8.50;8.00;;;14.40;78.20;;;;;;6262798;28;20791;-80
2023/06/17 02:38:15;;;;;;;9.50;8.67;;;14.40;78.20;;;;;;6277181;28;20326;-79
2023/06/17 02:41:22;;;;;;;6.97;6.70;;;14.40;77.90;;;;;;6264523;28;20352;-80
2023/06/17 02:44:25;;;;;;;7.87;7.47;;;14.40;77.70;;;;;;6264695;28;20628;-80
2023/06/17 02:47:29;;;;;;;7.90;7.40;;;14.40;77.60;;;;;;6264562;28;20324;-78
2023/06/17 02:50:32;;;;;;;9.50;8.90;;;14.40;77.60;;;;;;6259476;28;20242;-80
2023/06/17 02:53:35;;;;;;;9.77;9.00;;;14.40;77.50;;;;;;6263009;28;20241;-79
2023/06/17 02:56:39;;;;;;;9.63;8.90;;;14.40;77.60;;;;;;6263467;28;20832;-79
2023/06/17 02:59:43;;;;;;;9.60;8.90;;;14.40;77.60;;;;;;6259446;28;20311;-79
2023/06/17 03:02:48;;;;;;;9.27;8.67;;;14.40;77.60;;;;;;6267778;28;20238;-79
2023/06/17 03:05:51;;;;;;;9.77;9.07;;;14.40;77.60;;;;;;6270656;28;20232;-78
2023/06/17 03:08:54;;;;;;;9.70;9.10;;;14.40;77.60;;;;;;6275589;28;20318;-78
2023/06/17 03:11:59;;;;;;;9.77;9.17;;;14.40;77.60;;;;;;6277490;28;20326;-79
2023/06/17 03:15:03;;;;;;;8.10;7.60;;;14.40;77.60;;;;;;6264767;28;20643;-78
2023/06/17 03:18:06;;;;;;;10.70;10.00;;;14.40;77.60;;;;;;6268104;28;20316;-80
2023/06/17 03:21:09;;;;;;;12.00;11.20;;;14.50;77.50;;;;;;6281368;28;20732;-80
2023/06/17 03:24:12;;;;;;;12.40;11.40;;;14.50;77.40;;;;;;6265100;28;20246;-79
2023/06/17 03:27:17;;;;;;;8.60;8.10;;;14.50;77.60;;;;;;6269598;28;20635;-78
2023/06/17 03:30:20;;;;;;;8.67;8.07;;;14.50;77.60;;;;;;6261681;28;20262;-80
2023/06/17 03:33:23;;;;;;;8.83;8.33;;;14.50;77.60;;;;;;6246371;28;20241;-79
2023/06/17 03:36:28;;;;;;;10.90;10.10;;;14.60;77.60;;;;;;6262388;28;20343;-80
2023/06/17 03:39:31;;;;;;;11.37;10.63;;;14.60;77.70;;;;;;6263351;28;20407;-79
2023/06/17 03:42:36;;;;;;;11.57;10.77;;;14.60;77.70;;;;;;6266389;28;20257;-81
2023/06/17 03:45:39;;;;;;;10.03;9.33;;;14.60;77.60;;;;;;6261419;28;20605;-81
2023/06/17 03:48:42;;;;;;;10.50;9.60;;;14.60;77.60;;;;;;6252688;28;20905;-80
2023/06/17 03:51:45;;;;;;;11.13;10.43;;;14.60;77.60;;;;;;6261628;28;20320;-79
2023/06/17 03:54:48;;;;;;;8.23;7.63;;;14.70;77.60;;;;;;6251719;28;20232;-78
2023/06/17 03:57:53;;;;;;;9.73;9.03;;;14.70;77.60;;;;;;6272877;28;20229;-80
2023/06/17 04:00:57;;;;;;;12.03;11.23;;;14.70;77.60;;;;;;6273804;28;20229;-77
2023/06/17 04:04:00;;;;;;;11.43;10.43;;;14.70;77.60;;;;;;6257370;28;20226;-78
2023/06/17 04:07:04;;;;;;;10.63;9.90;;;14.80;77.60;;;;;;6264173;28;20336;-78
2023/06/17 04:10:09;;;;;;;12.70;11.70;;;14.80;77.50;;;;;;6273066;28;20984;-80
2023/06/17 04:13:14;;;;;;;11.83;11.00;;;14.90;77.20;;;;;;6266740;28;20265;-79
2023/06/17 04:16:17;;;;;;;13.40;12.27;;;14.90;77.10;;;;;;6284748;28;20265;-79
2023/06/17 04:19:23;;;;;;;12.43;11.43;;;14.90;77.20;;;;;;6268000;28;20337;-79
2023/06/17 04:22:26;;;;;;;14.77;13.57;;;15.00;77.20;;;;;;6259247;28;20242;-80
2023/06/17 04:25:32;;;;;;;12.73;11.53;;;15.00;77.00;;;;;;6275342;28;20245;-80
2023/06/17 04:28:36;;;;;;;13.80;12.60;;;15.00;76.90;;;;;;6258523;28;20313;-79
2023/06/17 04:31:40;;;;;;;13.50;12.30;;;15.00;77.00;;;;;;6269793;28;20387;-78
2023/06/17 04:34:47;;;;;;;13.80;12.70;;;15.00;77.10;;;;;;6266808;28;20242;-80
2023/06/17 04:37:53;;;;;;;15.00;13.77;;;15.20;77.00;;;;;;6281938;28;20362;-80
2023/06/17 04:40:57;;;;;;;16.23;14.93;;;15.20;77.00;;;;;;6272430;28;20268;-77
2023/06/17 04:44:01;;;;;;;16.43;15.03;;;15.20;76.90;;;;;;6278963;28;20725;-79
2023/06/17 04:47:06;;;;;;;13.90;12.87;;;15.30;76.90;;;;;;6281127;28;20242;-80
2023/06/17 04:50:10;;;;;;;13.77;12.73;;;15.30;77.00;;;;;;6278741;28;20241;-76
2023/06/17 04:53:13;;;;;;;13.87;12.77;;;15.40;76.90;;;;;;6271540;28;20241;-80
2023/06/17 04:56:16;;;;;;;16.27;14.87;;;15.50;76.90;;;;;;6273189;28;20298;-80
2023/06/17 04:59:21;;;;;;;13.30;12.20;;;15.60;76.60;;;;;;6270538;28;20291;-80
2023/06/17 05:02:25;;;;;;;16.00;14.63;;;15.60;76.70;;;;;;6259290;28;20242;-79
2023/06/17 05:05:29;;;;;;;17.90;16.07;;;15.80;76.10;;;;;;6277497;28;20245;-79
2023/06/17 05:08:32;;;;;;;16.73;15.23;;;15.80;76.10;;;;;;6264573;28;20265;-80
2023/06/17 05:11:38;;;;;;;15.47;14.17;;;15.90;76.00;;;;;;6270766;28;20322;-79
2023/06/17 05:14:43;;;;;;;15.73;14.33;;;16.00;75.90;;;;;;6264966;28;20237;-79
2023/06/17 05:17:46;;;;;;;14.73;13.63;;;16.00;75.70;;;;;;6266173;28;20619;-78
2023/06/17 05:20:49;;;;;;;16.40;14.87;;;16.00;75.40;;;;;;6265417;28;20234;-77
2023/06/17 05:23:52;;;;;;;14.87;13.63;;;16.10;75.10;;;;;;6265838;28;20226;-80
2023/06/17 05:26:55;;;;;;;16.57;15.17;;;16.10;75.20;;;;;;6261571;28;20364;-79
2023/06/17 05:30:00;;;;;;;15.00;13.70;;;16.30;74.90;;;;;;6258719;28;20907;-80
2023/06/17 05:33:03;;;;;;;14.53;13.30;;;16.40;74.40;;;;;;6266303;28;20618;-80
2023/06/17 05:36:06;;;;;;;16.13;14.47;;;16.50;73.80;;;;;;6268100;28;20229;-80
2023/06/17 05:39:10;;;;;;;15.60;14.23;;;16.60;73.00;;;;;;6264313;28;20246;-81
2023/06/17 05:42:13;;;;;;;15.40;14.20;;;16.70;73.10;;;;;;6274911;28;20746;-80
2023/06/17 05:45:18;;;;;;;14.13;13.03;;;16.80;72.70;;;;;;6273033;28;20244;-79
2023/06/17 05:48:21;;;;;;;14.17;12.97;;;16.80;72.60;;;;;;6269325;28;20253;-80
2023/06/17 05:51:28;;;;;;;13.23;12.10;;;17.00;72.10;;;;;;6263860;28;20245;-81
2023/06/17 05:54:31;;;;;;;12.37;11.33;;;17.00;71.90;;;;;;6264276;28;20244;-80
2023/06/17 05:57:35;;;;;;;13.17;12.23;;;17.00;71.60;;;;;;6270478;28;20233;-79
2023/06/17 06:00:39;;;;;;;13.27;12.37;;;17.20;71.00;;;;;;6276486;28;20238;-78
2023/06/17 06:03:43;;;;;;;12.60;11.70;;;17.20;71.30;;;;;;6272181;28;20245;-77
2023/06/17 06:06:46;;;;;;;14.00;12.90;;;17.20;71.50;;;;;;6292882;28;20289;-79
2023/06/17 06:09:49;;;;;;;15.33;14.13;;;17.40;71.60;;;;;;6300291;28;20209;-76
2023/06/17 06:12:52;;;;;;;13.77;12.77;;;17.40;71.00;;;;;;6298742;28;20229;-78
2023/06/17 06:15:57;;;;;;;14.63;13.50;;;17.50;71.10;;;;;;6307234;28;20236;-79
2023/06/17 06:19:00;;;;;;;13.57;12.27;;;17.50;70.50;;;;;;6330126;27;20274;-75
2023/06/17 06:22:04;;;;;;;15.13;13.80;;;17.50;70.10;;;;;;6299982;28;20226;-76
2023/06/17 06:25:08;;;;;;;15.17;14.03;;;17.50;70.00;;;;;;6315638;28;20226;-76
2023/06/17 06:28:11;;;;;;;15.80;14.40;;;17.50;70.10;;;;;;6314467;28;20213;-77
2023/06/17 06:31:17;;;;;;;15.77;14.27;;;17.50;70.10;;;;;;6309827;28;20230;-77
2023/06/17 06:34:20;;;;;;;15.87;14.63;;;17.50;70.10;;;;;;6296217;28;20238;-76
2023/06/17 06:37:23;;;;;;;15.27;14.07;;;17.40;69.90;;;;;;6297098;28;20218;-75
2023/06/17 06:40:26;;;;;;;15.93;14.70;;;17.50;70.30;;;;;;6298602;28;20275;-77
2023/06/17 06:43:29;;;;;;;15.23;14.03;;;17.60;70.50;;;;;;6298998;28;20240;-78
2023/06/17 06:46:33;;;;;;;15.03;13.83;;;17.70;70.00;;;;;;6288852;28;20242;-78
2023/06/17 06:49:38;;;;;;;14.57;13.37;;;17.70;69.60;;;;;;6294644;28;20214;-76
2023/06/17 06:52:41;;;;;;;14.40;13.30;;;17.80;69.30;;;;;;6307965;28;20307;-79
2023/06/17 06:55:44;;;;;;;13.93;12.87;;;17.90;68.90;;;;;;6310197;28;20217;-77
2023/06/17 06:58:47;;;;;;;14.30;13.03;;;18.10;69.40;;;;;;6293130;28;20232;-77
2023/06/17 07:01:52;;;;;;;16.10;14.70;;;18.20;69.40;;;;;;6293711;28;20374;-77
2023/06/17 07:04:55;;;;;;;14.57;13.47;;;18.30;68.90;;;;;;6302206;28;20222;-77
2023/06/17 07:07:58;;;;;;;13.23;12.17;;;18.50;68.60;;;;;;6299664;28;20218;-76
2023/06/17 07:11:01;;;;;;;14.27;13.17;;;18.60;68.20;;;;;;6302507;28;20283;-79
2023/06/17 07:14:04;;;;;;;14.93;13.60;;;18.70;68.00;;;;;;6277410;28;20292;-80
2023/06/17 07:17:09;;;;;;;16.33;14.97;;;18.80;67.60;;;;;;6265411;28;20238;-80
2023/06/17 07:20:13;;;;;;;15.27;14.17;;;18.90;67.50;;;;;;6266834;28;20435;-77
2023/06/17 07:23:16;;;;;;;16.27;14.90;;;18.90;67.40;;;;;;6278308;28;20755;-78
2023/06/17 07:26:19;;;;;;;14.90;13.83;;;18.90;67.20;;;;;;6272723;28;20240;-81
2023/06/17 07:29:22;;;;;;;14.07;13.07;;;19.00;67.20;;;;;;6258239;28;20779;-81
2023/06/17 07:32:27;;;;;;;15.30;13.77;;;19.00;67.20;;;;;;6284287;28;20249;-79
2023/06/17 07:35:31;;;;;;;14.13;12.93;;;18.90;67.10;;;;;;6277060;28;20245;-80
2023/06/17 07:38:34;;;;;;;15.03;14.00;;;19.00;67.70;;;;;;6282282;28;20237;-83
2023/06/17 07:41:37;;;;;;;15.83;14.73;;;19.10;67.20;;;;;;6273121;28;20280;-82
2023/06/17 07:44:40;;;;;;;16.40;14.90;;;19.10;67.20;;;;;;6280864;28;20237;-80
2023/06/17 07:47:45;;;;;;;16.90;15.47;;;19.10;66.70;;;;;;6280173;28;20272;-81
2023/06/17 07:50:48;;;;;;;14.17;13.07;;;19.00;67.20;;;;;;6280843;28;20245;-80
2023/06/17 07:53:52;;;;;;;16.17;14.97;;;19.00;67.50;;;;;;6268134;28;20229;-84
2023/06/17 07:56:55;;;;;;;15.77;14.43;;;18.90;67.60;;;;;;6271643;28;20226;-81
2023/06/17 07:59:58;;;;;;;17.20;15.90;;;19.00;67.70;;;;;;6272465;28;20713;-81
2023/06/17 08:03:03;;;;;;;15.20;14.10;;;19.10;67.10;;;;;;6297100;28;20229;-79
2023/06/17 08:06:08;;;;;;;16.33;14.93;;;19.10;67.40;;;;;;6282008;28;20249;-81
2023/06/17 08:09:12;;;;;;;16.10;14.80;;;19.20;67.20;;;;;;6294939;28;20291;-81
2023/06/17 08:12:15;;;;;;;15.43;14.27;;;19.20;67.50;;;;;;6283238;28;20252;-78
2023/06/17 08:15:19;;;;;;;17.40;16.07;;;19.10;67.40;;;;;;6288816;28;20240;-80
2023/06/17 08:18:23;;;;;;;18.10;16.53;;;19.10;67.50;;;;;;6284010;28;20260;-77
2023/06/17 08:21:27;;;;;;;16.33;14.80;;;19.10;67.40;;;;;;6306169;28;20229;-76
2023/06/17 08:24:30;;;;;;;16.60;15.40;;;19.30;67.40;;;;;;6293157;28;20245;-82
2023/06/17 08:27:34;;;;;;;14.67;13.50;;;19.70;67.00;;;;;;6282088;28;20238;-82
2023/06/17 08:30:37;;;;;;;18.27;16.90;;;20.00;66.20;;;;;;6307938;28;20229;-76
2023/06/17 08:33:42;;;;;;;17.37;15.93;;;20.20;65.10;;;;;;6303365;28;20238;-77
2023/06/17 08:36:46;;;;;;;15.87;14.67;;;20.30;65.20;;;;;;6317761;28;20229;-77
2023/06/17 08:39:49;;;;;;;15.87;14.60;;;20.20;65.10;;;;;;6327048;28;20325;-78
2023/06/17 08:43:00;;;;;;;15.53;14.33;;;20.30;65.10;;;;;;6309369;28;20234;-77
2023/06/17 08:46:03;;;;;;;15.13;14.00;;;20.30;64.70;;;;;;6320284;28;20213;-79
2023/06/17 08:49:08;;;;;;;13.33;12.40;;;20.30;64.60;;;;;;6314603;28;20287;-78
2023/06/17 08:52:13;;;;;;;16.03;14.73;;;20.50;64.60;;;;;;6311604;28;20282;-77
2023/06/17 08:55:17;;;;;;;14.33;13.23;;;20.80;63.50;;;;;;6307444;28;20214;-78
2023/06/17 08:58:21;;;;;;;14.30;13.20;;;20.80;63.40;;;;;;6296880;28;20333;-76
2023/06/17 09:01:27;;;;;;;14.07;12.97;;;20.90;63.40;;;;;;6315468;28;20252;-79
2023/06/17 09:04:32;;;;;;;14.30;13.00;;;20.90;63.00;;;;;;6299989;28;20222;-77
2023/06/17 09:07:36;;;;;;;12.67;11.77;;;20.90;62.80;;;;;;6302443;28;20233;-78
2023/06/17 09:10:45;;;;;;;14.80;13.70;;;21.00;63.10;;;;;;6284112;28;20234;-80
2023/06/17 09:13:51;;;;;;;14.33;13.43;;;21.00;62.50;;;;;;6289830;28;20234;-82
2023/06/17 09:16:55;;;;;;;15.07;13.57;;;21.10;62.60;;;;;;6296047;28;20283;-82
2023/06/17 09:20:10;;;;;;;14.00;13.07;;;21.10;62.50;;;;;;6292527;28;20232;-79
2023/06/17 09:23:18;;;;;;;14.00;12.70;;;21.00;62.60;;;;;;6282923;28;20237;-79
2023/06/17 09:26:27;;;;;;;15.30;14.20;;;21.00;63.10;;;;;;6288197;28;20649;-76
2023/06/17 09:29:40;;;;;;;14.43;13.30;;;21.10;62.20;;;;;;6277087;28;20234;-80
2023/06/17 09:32:45;;;;;;;15.47;14.17;;;21.10;62.80;;;;;;6278688;28;20249;-81
2023/06/17 09:36:00;;;;;;;15.00;13.97;;;21.10;62.50;;;;;;6280528;28;20267;-82
2023/06/17 09:39:06;;;;;;;13.93;12.83;;;21.10;62.60;;;;;;6274624;28;20242;-80
2023/06/17 09:42:12;;;;;;;13.50;12.53;;;21.00;62.90;;;;;;6280172;28;20283;-82
2023/06/17 09:45:24;;;;;;;11.93;11.20;;;21.00;62.90;;;;;;6281948;28;20245;-81
2023/06/17 09:48:31;;;;;;;12.70;11.90;;;21.00;62.60;;;;;;6271697;28;20268;-79
2023/06/17 09:51:37;;;;;;;11.87;10.97;;;20.90;63.20;;;;;;6268891;28;20259;-79
2023/06/17 09:54:42;;;;;;;11.80;11.00;;;20.90;63.50;;;;;;6271747;28;20734;-78
2023/06/17 09:57:46;;;;;;;13.33;12.30;;;21.00;63.60;;;;;;6284790;28;20242;-77
2023/06/17 10:00:52;;;;;;;13.03;11.93;;;21.20;63.60;;;;;;6273942;28;20257;-78
2023/06/17 10:03:55;;;;;;;13.07;12.23;;;21.30;62.80;;;;;;6276742;28;20226;-80
2023/06/17 10:07:02;;;;;;;12.53;11.63;;;21.50;62.70;;;;;;6279687;28;20233;-78
2023/06/17 10:10:08;;;;;;;11.67;10.93;;;21.70;62.20;;;;;;6278975;28;20238;-79
2023/06/17 10:13:12;;;;;;;13.43;12.50;;;21.90;62.40;;;;;;6275655;28;20242;-80
2023/06/17 10:16:18;;;;;;;12.63;11.70;;;22.20;61.60;;;;;;6268606;28;20328;-79
2023/06/17 10:19:26;;;;;;;13.97;12.87;;;22.30;61.20;;;;;;6275201;28;20234;-79
2023/06/17 10:22:31;;;;;;;12.63;11.63;;;22.50;60.60;;;;;;6284810;28;20319;-78
2023/06/17 10:25:36;;;;;;;11.03;10.33;;;22.50;59.80;;;;;;6271687;28;20246;-78
2023/06/17 10:28:57;;;;;;;13.03;11.80;;;22.50;60.40;;;;;;6262299;28;20287;-80
2023/06/17 10:32:17;;;;;;;13.67;12.77;;;22.50;58.90;;;;;;6266082;28;20773;-81
2023/06/17 10:35:20;;;;;;;11.27;10.67;;;22.10;59.40;;;;;;6274045;28;20234;-79
2023/06/17 10:38:33;;;;;;;13.13;12.23;;;21.90;60.40;;;;;;6287983;28;20787;-79
2023/06/17 10:41:59;;;;;;;13.23;12.33;;;21.90;60.30;;;;;;6273405;28;20249;-82
2023/06/17 10:45:13;;;;;;;13.53;12.43;;;21.70;60.30;;;;;;6278818;28;20234;-79
2023/06/17 10:48:17;;;;;;;11.17;10.33;;;21.50;60.70;;;;;;6280260;28;20238;-79
2023/06/17 10:51:23;;;;;;;11.13;10.43;;;21.50;61.40;;;;;;6271003;28;20484;-78
2023/06/17 10:54:46;;;;;;;10.43;9.83;;;21.90;60.70;;;;;;6277385;28;20253;-80
2023/06/17 10:57:49;;;;;;;11.97;11.17;;;22.40;60.50;;;;;;6284197;28;20831;-80
2023/06/17 11:01:00;;;;;;;10.63;10.03;;;22.50;59.40;;;;;;6282511;28;20633;-77
2023/06/17 11:04:07;;;;;;;11.70;10.70;;;22.80;58.90;;;;;;6285196;28;20228;-78
2023/06/17 11:07:10;;;;;;;12.73;11.57;;;23.30;58.60;;;;;;6266328;28;20370;-78
2023/06/17 11:10:15;;;;;;;11.03;10.20;;;23.60;56.70;;;;;;6276312;28;20253;-79
2023/06/17 11:13:21;;;;;;;9.80;9.30;;;23.80;56.90;;;;;;6298264;28;20245;-79
2023/06/17 11:16:25;;;;;;;9.67;8.97;;;23.90;56.00;;;;;;6273825;28;20245;-80
2023/06/17 11:19:28;;;;;;;8.90;8.30;;;23.90;55.70;;;;;;6281237;28;20406;-81
2023/06/17 11:22:31;;;;;;;9.37;8.83;;;23.90;55.50;;;;;;6273498;28;20522;-80
2023/06/17 11:25:37;;;;;;;9.00;8.50;;;23.70;55.90;;;;;;6258825;28;20244;-76
2023/06/17 11:28:48;;;;;;;9.37;8.87;;;23.70;55.30;;;;;;6268979;28;20242;-78
2023/06/17 11:31:51;;;;;;;9.33;8.83;;;23.60;55.80;;;;;;6277199;28;20264;-79
2023/06/17 11:34:55;;;;;;;11.80;11.00;;;23.30;56.10;;;;;;6266552;28;20249;-82
2023/06/17 11:37:58;;;;;;;8.97;8.43;;;22.50;59.70;;;;;;6279608;28;20229;-83
2023/06/17 11:41:02;;;;;;;7.87;7.40;;;21.80;61.50;;;;;;6276792;28;20296;-80
2023/06/17 11:44:06;;;;;;;6.63;6.27;;;21.30;62.50;;;;;;6271305;28;20245;-80
2023/06/17 11:47:10;;;;;;;6.30;6.00;;;20.70;63.20;;;;;;6277367;28;20248;-82
2023/06/17 11:50:14;;;;;;;8.40;7.80;;;20.50;64.40;;;;;;6283094;28;20238;-81
2023/06/17 11:53:17;;;;;;;8.57;8.17;;;20.00;64.70;;;;;;6272596;28;20317;-80
2023/06/17 11:56:21;;;;;;;9.20;8.57;;;19.90;66.00;;;;;;6268680;28;20326;-81
2023/06/17 11:59:25;;;;;;;8.47;8.07;;;19.70;66.50;;;;;;6274094;28;20720;-80
2023/06/17 12:02:28;;;;;;;9.67;9.07;;;19.70;67.40;;;;;;6268654;28;20244;-82
2023/06/17 12:05:32;;;;;;;8.17;7.83;;;19.70;67.40;;;;;;6299500;28;20230;-83
2023/06/17 12:08:37;;;;;;;8.47;8.07;;;19.50;67.60;;;;;;6269746;28;20239;-86
2023/06/17 12:11:43;;;;;;;8.47;7.97;;;19.50;67.50;;;;;;6272517;28;21153;-84
2023/06/17 12:14:47;;;;;;;7.60;7.03;;;19.50;67.30;;;;;;6279796;28;20954;-83
2023/06/17 12:17:50;;;;;;;6.90;6.50;;;19.60;66.70;;;;;;6269602;28;20825;-84
2023/06/17 12:20:54;;;;;;;6.27;5.90;;;19.50;65.50;;;;;;6278651;28;20352;-84
2023/06/17 12:23:58;;;;;;;6.60;6.10;;;19.60;65.60;;;;;;6272596;28;20241;-83
2023/06/17 12:27:03;;;;;;;6.10;5.87;;;19.60;65.60;;;;;;6269666;28;20305;-84
2023/06/17 12:30:07;;;;;;;7.93;7.43;;;19.70;65.40;;;;;;6261057;28;20232;-86
2023/06/17 12:33:11;;;;;;;6.60;6.30;;;19.70;64.40;;;;;;6277622;28;20230;-84
2023/06/17 12:36:16;;;;;;;7.17;6.40;;;19.70;64.90;;;;;;6273107;28;20225;-83
2023/06/17 12:39:19;;;;;;;7.00;6.60;;;19.70;65.30;;;;;;6266344;28;20317;-85
2023/06/17 12:42:24;;;;;;;6.43;6.10;;;19.70;64.60;;;;;;6264326;28;20245;-84
2023/06/17 12:45:33;;;;;;;6.40;6.00;;;19.70;64.80;;;;;;6264547;28;20839;-84
2023/06/17 12:48:36;;;;;;;6.73;6.43;;;20.00;64.90;;;;;;6270830;28;20235;-85
2023/06/17 12:51:40;;;;;;;6.87;6.47;;;20.10;64.80;;;;;;6254791;28;20379;-86
2023/06/17 12:54:44;;;;;;;6.67;6.37;;;20.00;63.30;;;;;;6272982;28;20268;-84
2023/06/17 12:57:49;;;;;;;6.50;6.13;;;20.00;63.30;;;;;;6265808;28;20237;-84
2023/06/17 13:00:53;;;;;;;6.37;6.07;;;19.70;63.70;;;;;;6264173;28;20237;-85
2023/06/17 13:03:57;;;;;;;6.43;6.10;;;19.70;64.00;;;;;;6290074;28;20254;-85
2023/06/17 13:07:01;;;;;;;6.60;6.20;;;19.50;65.10;;;;;;6274112;28;20238;-85
2023/06/17 13:10:05;;;;;;;6.23;5.83;;;19.40;65.60;;;;;;6286555;28;20234;-84
2023/06/17 13:13:10;;;;;;;7.03;6.63;;;19.30;66.00;;;;;;6278881;28;20459;-85
2023/06/17 13:16:13;;;;;;;6.30;6.00;;;19.20;66.50;;;;;;6287198;28;20814;-86
2023/06/17 13:19:18;;;;;;;6.27;5.97;;;19.10;67.20;;;;;;6276698;28;20230;-84
2023/06/17 13:22:21;;;;;;;6.93;6.63;;;19.10;67.20;;;;;;6265487;28;20246;-85
2023/06/17 13:25:25;;;;;;;7.07;6.77;;;19.20;67.80;;;;;;6271099;28;20248;-86
2023/06/17 13:28:32;;;;;;;6.17;5.87;;;19.40;67.60;;;;;;6274803;28;20249;-83
2023/06/17 13:31:36;;;;;;;7.03;6.60;;;19.80;68.10;;;;;;6279188;28;20296;-86
2023/06/17 13:34:39;;;;;;;7.23;6.83;;;20.30;68.30;;;;;;6280804;28;20254;-86
2023/06/17 13:37:42;;;;;;;6.83;6.53;;;20.70;66.90;;;;;;6258326;28;20239;-85
2023/06/17 13:40:45;;;;;;;6.73;6.37;;;21.10;65.50;;;;;;6277037;28;20316;-84
2023/06/17 13:43:50;;;;;;;7.37;6.67;;;21.10;65.00;;;;;;6263872;28;20650;-85
2023/06/17 13:46:55;;;;;;;8.13;7.43;;;21.00;63.70;;;;;;6269808;28;20238;-84
2023/06/17 13:49:58;;;;;;;7.30;6.73;;;20.80;63.80;;;;;;6276382;28;20233;-84
2023/06/17 13:53:03;;;;;;;7.43;7.00;;;20.70;64.70;;;;;;6269269;28;20991;-85
2023/06/17 13:56:07;;;;;;;8.37;7.87;;;20.50;64.80;;;;;;6265034;28;20238;-82
2023/06/17 13:59:12;;;;;;;8.87;8.27;;;20.40;65.50;;;;;;6270695;28;20232;-78
2023/06/17 14:02:15;;;;;;;12.43;8.00;;;20.30;66.00;;;;;;6283652;28;20312;-80
2023/06/17 14:05:19;;;;;;;11.97;11.03;;;20.10;66.40;;;;;;6270231;28;20229;-80
2023/06/17 14:08:22;;;;;;;9.13;8.33;;;20.00;67.00;;;;;;6257561;28;20261;-80
2023/06/17 14:11:26;;;;;;;7.07;6.67;;;19.90;67.30;;;;;;6263083;28;20242;-79
2023/06/17 14:14:31;;;;;;;7.27;6.97;;;20.00;67.20;;;;;;6274305;28;20237;-81
2023/06/17 14:17:34;;;;;;;7.30;6.80;;;20.00;66.30;;;;;;6269466;28;20324;-80
2023/06/17 14:20:37;;;;;;;7.57;7.00;;;20.00;65.50;;;;;;6276494;28;20881;-84
2023/06/17 14:24:04;;;;;;;5.60;5.33;;;19.90;65.40;;;;;;6267621;28;20238;-84
2023/06/17 14:27:43;;;;;;;5.67;5.30;;;19.80;64.70;;;;;;6257999;28;20241;-82
2023/06/17 14:30:50;;;;;;;6.33;6.13;;;19.80;64.70;;;;;;6261876;28;20237;-85
2023/06/17 14:33:56;;;;;;;6.13;5.80;;;20.00;64.60;;;;;;6274447;28;20747;-83
2023/06/17 14:36:59;;;;;;;6.37;5.93;;;20.00;64.70;;;;;;6275515;28;20238;-82
2023/06/17 14:40:02;;;;;;;5.70;5.50;;;20.10;64.30;;;;;;6263988;28;20272;-82
2023/06/17 14:43:06;;;;;;;5.80;5.57;;;20.30;64.10;;;;;;6265356;28;20268;-85
2023/06/17 14:46:13;;;;;;;5.20;4.90;;;20.60;62.80;;;;;;6260458;28;20265;-83
2023/06/17 14:49:17;;;;;;;5.47;5.17;;;20.90;61.70;;;;;;6262276;28;20232;-84
2023/06/17 14:52:20;;;;;;;5.00;4.70;;;21.10;60.80;;;;;;6257140;28;20246;-84
2023/06/17 14:55:24;;;;;;;5.30;5.20;;;21.40;60.90;;;;;;6264405;28;20226;-86
2023/06/17 14:58:27;;;;;;;5.90;5.70;;;21.50;60.70;;;;;;6263322;28;20258;-83
2023/06/17 15:01:44;;;;;;;6.00;5.70;;;21.70;59.70;;;;;;6267760;28;20855;-83
2023/06/17 15:04:48;;;;;;;5.70;5.50;;;21.90;59.90;;;;;;6262451;28;20242;-82
2023/06/17 15:07:51;;;;;;;6.10;5.67;;;22.00;59.80;;;;;;6262751;28;20241;-85
2023/06/17 15:10:55;;;;;;;6.77;6.47;;;22.10;60.40;;;;;;6264920;28;20238;-82
2023/06/17 15:13:58;;;;;;;5.90;5.70;;;22.10;58.70;;;;;;6263748;28;20307;-85
2023/06/17 15:17:06;;;;;;;6.70;6.40;;;22.20;59.30;;;;;;6249448;28;20819;-81
2023/06/17 15:20:11;;;;;;;6.53;6.00;;;22.30;59.20;;;;;;6280504;28;20224;-85
2023/06/17 15:23:15;;;;;;;6.53;5.87;;;22.30;59.10;;;;;;6264447;28;20233;-83
2023/06/17 15:26:18;;;;;;;6.23;6.03;;;22.40;59.10;;;;;;6265820;28;20226;-85
2023/06/17 15:29:23;;;;;;;6.50;6.20;;;22.50;58.70;;;;;;6267033;28;20245;-87
2023/06/17 15:32:27;;;;;;;6.80;6.37;;;22.70;58.40;;;;;;6264808;28;20629;-87
2023/06/17 15:35:31;;;;;;;6.53;6.13;;;22.80;58.80;;;;;;6268795;28;20230;-85
2023/06/17 15:38:34;;;;;;;7.10;6.60;;;22.80;58.20;;;;;;6279315;28;20321;-85
2023/06/17 15:41:38;;;;;;;6.03;5.83;;;22.90;58.10;;;;;;6263668;28;20642;-86
2023/06/17 15:44:41;;;;;;;7.27;6.93;;;23.00;58.10;;;;;;6262048;28;20726;-83
2023/06/17 15:47:47;;;;;;;7.23;6.93;;;22.90;58.20;;;;;;6271105;28;20241;-85
2023/06/17 15:50:50;;;;;;;7.27;6.87;;;22.80;58.50;;;;;;6255889;28;20233;-86